Time;durP1;ratioP1;P1;durP2;ratioP2;P2;SDS_P1;SDS_P2;PMS_P1;PMS_P2;Temp;Humidity;BMP_temperature;BMP_pressure;BME280_temperature;BME280_humidity;BME280_pressure;Samples;Min_cycle;Max_cycle;Signal;HPM_P1;HPM_P2
2023/09/30 00:02:01;;;;;;;;;;;17.80;99.90;;;;;;2618092;39;20330;-73
2023/09/30 00:04:31;;;;;;;;;;;17.90;99.90;;;;;;2617287;51;20038;-71
2023/09/30 00:07:01;;;;;;;;;;;17.90;99.90;;;;;;2616644;54;19947;-71
2023/09/30 00:09:33;;;;;;;;;;;17.90;99.90;;;;;;2617809;39;20354;-72
2023/09/30 00:12:03;;;;;;;;;;;18.00;99.90;;;;;;2617575;54;20004;-73
2023/09/30 00:14:32;;;;;;;;;;;18.00;99.90;;;;;;2617283;54;19954;-72
2023/09/30 00:17:02;;;;;;;;;;;18.00;99.90;;;;;;2617244;54;19953;-72
2023/09/30 00:19:32;;;;;;;;;;;18.00;99.90;;;;;;2616878;54;20422;-72
2023/09/30 00:22:03;;;;;;;;;;;18.00;99.90;;;;;;2617816;39;20346;-72
2023/09/30 00:24:35;;;;;;;;;;;18.00;99.90;;;;;;2617687;54;19946;-72
2023/09/30 00:27:07;;;;;;;;;;;18.00;99.90;;;;;;2617482;47;19972;-72
2023/09/30 00:29:38;;;;;;;;;;;18.00;99.90;;;;;;2618294;54;20571;-72
2023/09/30 00:32:07;;;;;;;;;;;18.00;99.90;;;;;;2620505;47;19951;-72
2023/09/30 00:34:37;;;;;;;;;;;18.00;99.90;;;;;;2618375;54;19946;-72
2023/09/30 00:37:07;;;;;;;;;;;18.00;99.90;;;;;;2617375;54;20041;-72
2023/09/30 00:39:39;;;;;;;;;;;18.00;99.90;;;;;;2617022;47;20202;-72
2023/09/30 00:42:09;;;;;;;;;;;17.90;99.90;;;;;;2616937;54;19950;-72
2023/09/30 00:44:39;;;;;;;;;;;17.90;99.90;;;;;;2616237;47;20418;-72
2023/09/30 00:47:10;;;;;;;;;;;17.80;99.90;;;;;;2617236;54;19982;-72
2023/09/30 00:49:38;;;;;;;;;;;17.80;99.90;;;;;;2616697;47;19938;-72
2023/09/30 00:52:07;;;;;;;;;;;17.70;99.90;;;;;;2616478;54;19951;-73
2023/09/30 00:54:41;;;;;;;;;;;17.70;99.90;;;;;;2616414;54;19954;-72
2023/09/30 00:57:11;;;;;;;;;;;17.70;99.90;;;;;;2616698;47;19938;-72
2023/09/30 00:59:41;;;;;;;;;;;17.70;99.90;;;;;;2615643;47;20485;-72
2023/09/30 01:02:11;;;;;;;;;;;17.70;99.90;;;;;;2616776;47;19987;-72
2023/09/30 01:04:41;;;;;;;;;;;17.70;99.90;;;;;;2616830;54;20448;-72
2023/09/30 01:07:13;;;;;;;;;;;17.60;99.90;;;;;;2617446;47;19947;-73
2023/09/30 01:09:46;;;;;;;;;;;17.60;99.90;;;;;;2617073;54;19977;-72
2023/09/30 01:12:15;;;;;;;;;;;17.60;99.90;;;;;;2617049;54;19939;-72
2023/09/30 01:15:11;;;;;;;;;;;17.60;99.90;;;;;;2616930;39;20388;-72
2023/09/30 01:17:40;;;;;;;;;;;17.60;99.90;;;;;;2617309;54;19947;-73
2023/09/30 01:20:16;;;;;;;;;;;17.60;99.90;;;;;;2617066;31;20412;-71
2023/09/30 01:22:48;;;;;;;;;;;17.60;99.90;;;;;;2616433;39;20451;-72
2023/09/30 01:25:18;;;;;;;;;;;17.60;99.90;;;;;;2616939;47;19946;-72
2023/09/30 01:27:48;;;;;;;;;;;17.60;99.90;;;;;;2617066;54;19958;-72
2023/09/30 01:30:18;;;;;;;;;;;17.60;99.90;;;;;;2616788;54;19953;-72
2023/09/30 01:32:48;;;;;;;;;;;17.60;99.90;;;;;;2617546;54;19947;-72
2023/09/30 01:35:18;;;;;;;;;;;17.60;99.90;;;;;;2617975;39;20349;-72
2023/09/30 01:37:50;;;;;;;;;;;17.40;99.90;;;;;;2617484;47;19947;-72
2023/09/30 01:40:20;;;;;;;;;;;17.50;99.90;;;;;;2617004;54;20573;-72
2023/09/30 01:42:49;;;;;;;;;;;17.50;99.90;;;;;;2616615;54;20450;-72
2023/09/30 01:45:19;;;;;;;;;;;17.50;99.90;;;;;;2617053;47;19946;-72
2023/09/30 01:47:48;;;;;;;;;;;17.40;99.90;;;;;;2617647;54;19974;-72
2023/09/30 01:50:18;;;;;;;;;;;17.40;99.90;;;;;;2616116;47;19939;-72
2023/09/30 01:52:51;;;;;;;;;;;17.40;99.90;;;;;;2616992;54;19947;-72
2023/09/30 01:55:20;;;;;;;;;;;17.40;99.90;;;;;;2617253;39;20353;-72
2023/09/30 01:57:50;;;;;;;;;;;17.40;99.90;;;;;;2616725;47;20449;-72
2023/09/30 02:00:20;;;;;;;;;;;17.30;99.90;;;;;;2616508;54;19960;-72
2023/09/30 02:02:50;;;;;;;;;;;17.40;99.90;;;;;;2617062;54;20007;-72
2023/09/30 02:05:19;;;;;;;;;;;17.30;99.90;;;;;;2617219;47;19938;-72
2023/09/30 02:07:52;;;;;;;;;;;17.30;99.90;;;;;;2617747;54;19946;-72
2023/09/30 02:10:21;;;;;;;;;;;17.20;99.90;;;;;;2616721;54;19946;-71
2023/09/30 02:12:51;;;;;;;;;;;17.10;99.90;;;;;;2617219;47;19947;-71
2023/09/30 02:15:21;;;;;;;;;;;17.10;99.90;;;;;;2618044;54;19938;-71
2023/09/30 02:17:51;;;;;;;;;;;17.00;99.90;;;;;;2617863;54;19938;-71
2023/09/30 02:20:22;;;;;;;;;;;17.00;99.90;;;;;;2615928;54;19945;-71
2023/09/30 02:22:54;;;;;;;;;;;17.00;99.90;;;;;;2617422;47;19946;-71
2023/09/30 02:25:24;;;;;;;;;;;17.00;99.90;;;;;;2617727;54;19950;-71
2023/09/30 02:27:54;;;;;;;;;;;17.00;99.90;;;;;;2617158;53;19954;-72
2023/09/30 02:30:24;;;;;;;;;;;17.00;99.90;;;;;;2617414;54;19943;-71
2023/09/30 02:32:56;;;;;;;;;;;17.00;99.90;;;;;;2617903;47;19954;-71
2023/09/30 02:35:26;;;;;;;;;;;17.00;99.90;;;;;;2617670;39;20326;-71
2023/09/30 02:40:33;;;;;;;;;;;17.00;99.90;;;;;;2618579;54;19945;-72
2023/09/30 02:43:03;;;;;;;;;;;17.00;99.90;;;;;;2615509;54;19954;-72
2023/09/30 02:45:33;;;;;;;;;;;17.00;99.90;;;;;;2615207;47;20382;-72
2023/09/30 02:48:03;;;;;;;;;;;17.00;99.90;;;;;;2616440;46;19938;-72
2023/09/30 02:50:33;;;;;;;;;;;16.90;99.90;;;;;;2615417;54;19946;-71
2023/09/30 02:53:04;;;;;;;;;;;16.90;99.90;;;;;;2616918;54;19953;-72
2023/09/30 02:55:36;;;;;;;;;;;16.90;99.90;;;;;;2615955;54;19962;-71
2023/09/30 02:58:07;;;;;;;;;;;16.90;99.90;;;;;;2617416;39;20350;-73
2023/09/30 03:00:40;;;;;;;;;;;16.30;99.90;;;;;;2614960;54;19946;-72
2023/09/30 03:03:09;;;;;;;;;;;16.90;99.90;;;;;;2616294;47;19947;-72
2023/09/30 03:05:39;;;;;;;;;;;16.80;99.90;;;;;;2616369;54;19959;-73
2023/09/30 03:08:09;;;;;;;;;;;16.80;99.90;;;;;;2617006;54;20336;-72
2023/09/30 03:10:42;;;;;;;;;;;16.70;99.90;;;;;;2616548;39;20330;-73
2023/09/30 03:13:11;;;;;;;;;;;16.70;99.90;;;;;;2610146;54;19949;-73
2023/09/30 03:31:08;;;;;;;;;;;16.40;99.90;;;;;;2613006;47;19947;-73
2023/09/30 03:33:40;;;;;;;;;;;16.40;99.90;;;;;;2612420;54;20489;-71
2023/09/30 03:36:11;;;;;;;;;;;16.40;99.90;;;;;;1909580;54;38663933;31
2023/09/30 03:38:41;;;;;;;;;;;16.30;99.90;;;;;;2608238;46;19946;-73
2023/09/30 03:41:13;;;;;;;;;;;16.30;99.90;;;;;;2605130;54;19943;-71
2023/09/30 03:53:47;;;;;;;;;;;16.30;99.90;;;;;;2616662;54;19977;-72
2023/09/30 03:56:18;;;;;;;;;;;16.20;99.90;;;;;;2615655;54;19947;-72
2023/09/30 03:58:48;;;;;;;;;;;16.20;99.90;;;;;;2615874;50;19954;-72
2023/09/30 04:01:19;;;;;;;;;;;16.10;99.90;;;;;;2615264;54;19947;-71
2023/09/30 04:03:49;;;;;;;;;;;16.10;99.90;;;;;;2616454;54;19950;-74
2023/09/30 04:06:19;;;;;;;;;;;16.10;99.90;;;;;;2615987;39;20457;-72
2023/09/30 04:08:55;;;;;;;;;;;16.00;99.90;;;;;;2616532;54;19947;-74
2023/09/30 04:11:26;;;;;;;;;;;16.00;99.90;;;;;;2616574;39;20424;-72
2023/09/30 04:13:56;;;;;;;;;;;16.00;99.90;;;;;;2616177;54;19939;-72
2023/09/30 04:16:28;;;;;;;;;;;16.00;99.90;;;;;;2616010;54;20038;-72
2023/09/30 04:18:58;;;;;;;;;;;15.90;99.90;;;;;;2616535;54;19953;-72
2023/09/30 04:21:30;;;;;;;;;;;15.90;99.90;;;;;;2615515;48;19938;-74
2023/09/30 04:24:04;;;;;;;;;;;15.90;99.90;;;;;;2616690;47;19970;-74
2023/09/30 04:26:33;;;;;;;;;;;15.90;99.90;;;;;;2616463;54;19951;-73
2023/09/30 04:29:10;;;;;;;;;;;15.90;99.90;;;;;;2616168;54;19938;-72
2023/09/30 04:31:41;;;;;;;;;;;15.90;99.90;;;;;;2616106;54;19954;-73
2023/09/30 04:34:11;;;;;;;;;;;15.90;99.90;;;;;;2616860;39;20505;-72
2023/09/30 04:36:41;;;;;;;;;;;15.90;99.90;;;;;;2616137;54;19954;-73
2023/09/30 04:39:14;;;;;;;;;;;15.90;99.90;;;;;;2616416;47;19946;-71
2023/09/30 04:41:44;;;;;;;;;;;15.90;99.90;;;;;;2616485;54;20016;-73
2023/09/30 04:44:14;;;;;;;;;;;16.00;99.90;;;;;;2616039;54;19947;-72
2023/09/30 04:46:45;;;;;;;;;;;15.90;99.90;;;;;;2616523;47;19946;-72
2023/09/30 04:49:17;;;;;;;;;;;15.90;99.90;;;;;;2616862;39;20345;-74
2023/09/30 04:51:49;;;;;;;;;;;15.90;99.90;;;;;;2616569;54;19950;-73
2023/09/30 04:54:21;;;;;;;;;;;15.90;99.90;;;;;;2616781;54;19964;-73
2023/09/30 04:56:51;;;;;;;;;;;15.90;99.90;;;;;;2616599;54;20028;-73
2023/09/30 04:59:21;;;;;;;;;;;15.80;99.90;;;;;;2615859;54;20389;-73
2023/09/30 05:01:50;;;;;;;;;;;15.80;99.90;;;;;;2615994;54;19947;-73
2023/09/30 05:04:20;;;;;;;;;;;15.80;99.90;;;;;;2616041;54;19938;-72
2023/09/30 05:06:50;;;;;;;;;;;15.80;99.90;;;;;;2616010;47;19966;-73
2023/09/30 05:09:22;;;;;;;;;;;15.70;99.90;;;;;;2616116;47;19947;-73
2023/09/30 05:11:52;;;;;;;;;;;15.70;99.90;;;;;;2616287;54;19995;-72
2023/09/30 05:14:21;;;;;;;;;;;15.70;99.90;;;;;;2616092;54;19973;-73
2023/09/30 05:16:51;;;;;;;;;;;15.70;99.90;;;;;;2616518;54;19957;-73
2023/09/30 05:19:21;;;;;;;;;;;15.70;99.90;;;;;;2615526;47;19997;-72
2023/09/30 05:21:51;;;;;;;;;;;15.60;99.90;;;;;;2615774;54;19947;-72
2023/09/30 05:24:23;;;;;;;;;;;15.60;99.90;;;;;;2615958;54;19969;-73
2023/09/30 05:26:53;;;;;;;;;;;15.60;99.90;;;;;;2615759;47;19953;-74
2023/09/30 05:29:22;;;;;;;;;;;15.60;99.90;;;;;;2615105;54;19954;-72
2023/09/30 05:31:52;;;;;;;;;;;15.50;99.90;;;;;;2615840;54;19947;-73
2023/09/30 05:34:22;;;;;;;;;;;15.50;99.90;;;;;;2616859;50;19939;-72
2023/09/30 05:36:51;;;;;;;;;;;15.40;99.90;;;;;;2617974;31;20410;-72
2023/09/30 05:39:25;;;;;;;;;;;15.40;99.90;;;;;;2616943;54;19947;-73
2023/09/30 05:41:55;;;;;;;;;;;15.40;99.90;;;;;;2617156;54;19947;-72
2023/09/30 05:44:26;;;;;;;;;;;15.40;99.90;;;;;;2617154;47;19957;-70
2023/09/30 05:46:55;;;;;;;;;;;15.40;99.90;;;;;;2617230;54;19938;-72
2023/09/30 05:52:19;;;;;;;;;;;15.40;99.90;;;;;;2617170;54;19939;-73
2023/09/30 05:54:51;;;;;;;;;;;15.30;99.90;;;;;;2616998;54;19947;-73
2023/09/30 05:57:23;;;;;;;;;;;15.30;99.90;;;;;;2616880;47;19947;-71
2023/09/30 05:59:52;;;;;;;;;;;15.30;99.90;;;;;;2616736;47;19957;-70
2023/09/30 06:02:23;;;;;;;;;;;15.30;99.90;;;;;;2616771;54;19939;-72
2023/09/30 06:04:53;;;;;;;;;;;15.20;99.90;;;;;;2617761;46;19939;-71
2023/09/30 06:07:23;;;;;;;;;;;15.10;99.90;;;;;;2616177;47;20501;-70
2023/09/30 06:12:23;;;;;;;;;;;15.10;99.90;;;;;;2617145;54;19939;-69
2023/09/30 06:14:53;;;;;;;;;;;15.10;99.90;;;;;;2616552;54;20038;-70
2023/09/30 06:17:23;;;;;;;;;;;15.10;99.90;;;;;;2617950;47;19945;-72
2023/09/30 06:19:53;;;;;;;;;;;15.10;99.90;;;;;;2616927;54;20438;-70
2023/09/30 06:22:23;;;;;;;;;;;15.20;99.90;;;;;;2616380;54;19954;-72
2023/09/30 06:24:54;;;;;;;;;;;15.20;99.90;;;;;;2616056;54;19938;-70
2023/09/30 06:27:26;;;;;;;;;;;15.20;99.90;;;;;;2616115;54;20056;-70
2023/09/30 06:29:57;;;;;;;;;;;15.20;99.90;;;;;;2616072;54;19956;-70
2023/09/30 06:32:27;;;;;;;;;;;15.20;99.90;;;;;;2616593;54;20438;-68
2023/09/30 06:34:56;;;;;;;;;;;15.20;99.90;;;;;;2615831;47;20385;-64
2023/09/30 06:37:29;;;;;;;;;;;15.20;99.90;;;;;;2616177;54;19954;-64
2023/09/30 06:40:00;;;;;;;;;;;15.30;99.90;;;;;;2616774;54;19963;-69
2023/09/30 06:42:33;;;;;;;;;;;15.30;99.90;;;;;;2616765;39;20349;-73
2023/09/30 06:45:05;;;;;;;;;;;15.30;99.90;;;;;;2616144;54;19976;-72
2023/09/30 06:47:36;;;;;;;;;;;15.30;99.90;;;;;;2616330;54;19947;-70
2023/09/30 06:50:08;;;;;;;;;;;15.30;99.90;;;;;;2616317;54;19945;-71
2023/09/30 06:52:39;;;;;;;;;;;15.30;99.90;;;;;;2616915;54;20037;-71
2023/09/30 06:55:10;;;;;;;;;;;15.30;99.90;;;;;;2617872;46;19946;-71
2023/09/30 06:57:43;;;;;;;;;;;15.30;99.90;;;;;;2616722;54;20445;-73
2023/09/30 07:00:14;;;;;;;;;;;15.30;99.90;;;;;;2616292;47;20438;-71
2023/09/30 07:02:46;;;;;;;;;;;15.30;99.90;;;;;;2616952;46;19950;-71
2023/09/30 07:05:17;;;;;;;;;;;15.30;99.90;;;;;;2616290;54;19947;-70
2023/09/30 07:07:47;;;;;;;;;;;15.40;99.90;;;;;;2616169;49;19950;-73
2023/09/30 07:10:20;;;;;;;;;;;15.40;99.90;;;;;;2615531;54;20058;-71
2023/09/30 07:12:52;;;;;;;;;;;15.50;99.90;;;;;;2615495;47;19939;-72
2023/09/30 07:15:22;;;;;;;;;;;15.50;99.90;;;;;;2615785;54;19971;-71
2023/09/30 07:17:52;;;;;;;;;;;15.60;99.90;;;;;;2615460;54;19946;-71
2023/09/30 07:20:22;;;;;;;;;;;14.80;99.90;;;;;;2615049;54;19971;-71
2023/09/30 07:22:52;;;;;;;;;;;15.60;99.90;;;;;;2616055;54;19977;-71
2023/09/30 07:25:46;;;;;;;;;;;15.70;99.90;;;;;;2618528;54;19946;-74
2023/09/30 07:28:19;;;;;;;;;;;15.70;99.90;;;;;;2617534;54;19951;-71
2023/09/30 07:30:49;;;;;;;;;;;15.80;99.90;;;;;;2617664;54;20046;-70
2023/09/30 07:33:21;;;;;;;;;;;15.80;99.90;;;;;;2618070;54;19939;-70
2023/09/30 07:35:58;;;;;;;;;;;15.80;99.90;;;;;;2615405;47;19970;-78
2023/09/30 07:38:28;;;;;;;;;;;15.90;99.90;;;;;;2620469;47;19991;-80
2023/09/30 07:40:58;;;;;;;;;;;15.90;99.90;;;;;;2623051;47;19950;-80
2023/09/30 07:43:30;;;;;;;;;;;16.00;99.90;;;;;;2629671;39;20360;-79
2023/09/30 07:46:00;;;;;;;;;;;16.00;99.90;;;;;;2628558;39;20335;-80
2023/09/30 07:48:32;;;;;;;;;;;16.00;99.90;;;;;;2620831;47;19958;-78
2023/09/30 07:51:06;;;;;;;;;;;16.00;99.90;;;;;;2620245;54;20008;-79
2023/09/30 07:53:36;;;;;;;;;;;16.10;99.90;;;;;;2620892;47;19950;-78
2023/09/30 07:56:06;;;;;;;;;;;16.10;99.90;;;;;;2620124;54;19951;-78
2023/09/30 07:58:38;;;;;;;;;;;16.20;99.90;;;;;;2619501;54;19947;-78
2023/09/30 08:01:10;;;;;;;;;;;16.20;99.90;;;;;;2619501;54;19946;-76
2023/09/30 08:03:40;;;;;;;;;;;16.20;99.90;;;;;;2615184;54;19970;-77
2023/09/30 08:06:11;;;;;;;;;;;16.20;99.90;;;;;;2614748;39;20438;-75
2023/09/30 08:08:41;;;;;;;;;;;16.30;99.90;;;;;;2616846;54;19954;-75
2023/09/30 08:11:12;;;;;;;;;;;16.30;99.90;;;;;;2616176;54;19946;-77
2023/09/30 08:13:44;;;;;;;;;;;16.40;99.90;;;;;;2614892;47;20419;-76
2023/09/30 08:16:15;;;;;;;;;;;16.40;99.90;;;;;;2614786;54;19954;-77
2023/09/30 08:18:48;;;;;;;;;;;16.50;99.90;;;;;;2615141;47;19970;-77
2023/09/30 08:21:18;;;;;;;;;;;16.50;99.90;;;;;;2614647;47;20475;-76
2023/09/30 08:23:48;;;;;;;;;;;16.60;99.90;;;;;;2615426;47;19953;-76
2023/09/30 08:26:18;;;;;;;;;;;16.60;99.90;;;;;;2617531;47;19958;-76
2023/09/30 08:28:51;;;;;;;;;;;16.70;99.90;;;;;;2616462;54;19957;-73
2023/09/30 08:31:21;;;;;;;;;;;16.80;99.90;;;;;;2620801;54;19947;-79
2023/09/30 08:33:51;;;;;;;;;;;17.00;99.90;;;;;;2619363;47;19953;-77
2023/09/30 08:39:06;;;;;;;;;;;17.00;99.90;;;;;;2615821;54;19970;-71
2023/09/30 08:41:36;;;;;;;;;;;17.10;99.90;;;;;;2617200;54;19969;-71
2023/09/30 08:44:09;;;;;;;;;;;17.20;99.90;;;;;;2617101;54;20068;-72
2023/09/30 08:46:39;;;;;;;;;;;17.20;99.90;;;;;;2616680;54;19938;-71
2023/09/30 08:49:09;;;;;;;;;;;17.30;99.90;;;;;;2616623;54;19946;-70
2023/09/30 08:51:39;;;;;;;;;;;17.30;99.90;;;;;;2615940;47;19938;-70
2023/09/30 08:54:09;;;;;;;;;;;17.40;99.90;;;;;;2616650;54;19956;-68
2023/09/30 08:56:39;;;;;;;;;;;17.40;99.90;;;;;;2616881;54;19953;-68
2023/09/30 08:59:12;;;;;;;;;;;17.60;99.90;;;;;;2616253;54;19947;-70
2023/09/30 09:01:43;;;;;;;;;;;17.60;99.90;;;;;;2617325;54;19950;-72
2023/09/30 09:04:14;;;;;;;;;;;17.70;99.90;;;;;;2620954;54;19953;-70
2023/09/30 09:06:45;;;;;;;;;;;17.80;99.90;;;;;;2621979;47;19957;-69
2023/09/30 09:09:16;;;;;;;;;;;17.90;99.90;;;;;;2618644;47;20489;-69
2023/09/30 09:11:46;;;;;;;;;;;18.00;99.90;;;;;;2617808;39;20344;-70
2023/09/30 09:14:18;;;;;;;;;;;18.00;99.90;;;;;;2616985;46;19960;-69
2023/09/30 09:16:55;;;;;;;;;;;18.20;99.90;;;;;;2616965;54;19952;-69
2023/09/30 09:19:25;;;;;;;;;;;18.20;99.90;;;;;;2617035;39;20381;-69
2023/09/30 09:21:58;;;;;;;;;;;18.30;99.90;;;;;;2617897;39;20345;-70
2023/09/30 09:24:32;;;;;;;;;;;18.40;99.90;;;;;;2617693;54;19947;-71
2023/09/30 09:27:08;;;;;;;;;;;18.50;99.90;;;;;;2617396;54;20565;-69
2023/09/30 09:29:42;;;;;;;;;;;18.60;99.90;;;;;;2616932;54;19957;-71
2023/09/30 09:32:12;;;;;;;;;;;18.70;99.90;;;;;;2618378;39;20620;-68
2023/09/30 09:34:43;;;;;;;;;;;18.80;99.90;;;;;;2617261;54;19999;-69
2023/09/30 09:37:17;;;;;;;;;;;18.90;99.90;;;;;;2617293;54;19954;-69
2023/09/30 09:39:53;;;;;;;;;;;19.00;99.90;;;;;;2616514;51;19991;-69
2023/09/30 09:42:29;;;;;;;;;;;19.10;99.90;;;;;;2617506;54;19946;-70
2023/09/30 09:45:05;;;;;;;;;;;19.20;99.90;;;;;;2616955;54;20042;-69
2023/09/30 09:47:35;;;;;;;;;;;19.30;99.90;;;;;;2617204;54;19939;-70
2023/09/30 09:50:06;;;;;;;;;;;19.40;99.90;;;;;;2616315;54;19946;-71
2023/09/30 09:52:36;;;;;;;;;;;19.50;99.90;;;;;;2617464;54;20449;-71
2023/09/30 09:55:07;;;;;;;;;;;19.60;99.90;;;;;;2617978;39;20045;-69
2023/09/30 09:57:38;;;;;;;;;;;19.70;99.90;;;;;;2617275;54;19946;-68
2023/09/30 10:00:14;;;;;;;;;;;19.80;99.90;;;;;;2616800;47;19962;-65
2023/09/30 10:02:43;;;;;;;;;;;19.90;99.90;;;;;;2618413;54;20433;-68
2023/09/30 10:05:13;;;;;;;;;;;20.00;99.90;;;;;;2617550;54;19947;-69
2023/09/30 10:07:46;;;;;;;;;;;20.10;99.90;;;;;;2616939;54;19953;-71
2023/09/30 10:10:18;;;;;;;;;;;20.30;99.90;;;;;;2617073;54;19946;-69
2023/09/30 10:12:48;;;;;;;;;;;20.40;99.90;;;;;;2617248;54;19946;-69
2023/09/30 10:15:44;;;;;;;;;;;20.50;99.90;;;;;;2616458;54;19970;-70
2023/09/30 10:18:17;;;;;;;;;;;20.70;99.90;;;;;;2617252;47;20414;-68
2023/09/30 10:20:48;;;;;;;;;;;20.80;99.90;;;;;;2617276;54;19939;-70
2023/09/30 10:23:20;;;;;;;;;;;20.70;99.90;;;;;;2617412;54;20072;-69
2023/09/30 10:25:51;;;;;;;;;;;20.60;99.90;;;;;;2615717;47;19939;-66
2023/09/30 10:28:36;;;;;;;;;;;20.60;99.90;;;;;;2617109;54;19953;-68
2023/09/30 10:31:12;;;;;;;;;;;20.50;99.90;;;;;;2616844;54;19939;-69
2023/09/30 10:33:57;;;;;;;;;;;20.60;99.90;;;;;;2605326;54;19958;-71
2023/09/30 10:36:33;;;;;;;;;;;20.70;99.90;;;;;;2604736;54;19954;-69
2023/09/30 10:39:03;;;;;;;;;;;20.70;99.90;;;;;;2604951;54;19983;-72
2023/09/30 10:41:50;;;;;;;;;;;20.70;99.90;;;;;;2605839;54;20749;-70
2023/09/30 10:44:34;;;;;;;;;;;20.70;99.90;;;;;;2604769;54;19947;-69
2023/09/30 10:47:19;;;;;;;;;;;20.80;99.90;;;;;;2606766;47;19946;-69
2023/09/30 10:49:49;;;;;;;;;;;20.90;99.90;;;;;;2606332;54;19950;-69
2023/09/30 10:52:26;;;;;;;;;;;21.10;99.90;;;;;;2608032;54;20469;-70
2023/09/30 10:54:56;;;;;;;;;;;21.20;99.90;;;;;;2605595;54;19946;-69
2023/09/30 10:57:29;;;;;;;;;;;21.10;99.90;;;;;;2606511;54;19947;-70
2023/09/30 11:00:11;;;;;;;;;;;21.10;99.90;;;;;;2606645;54;20502;-69
2023/09/30 11:02:51;;;;;;;;;;;21.10;99.90;;;;;;2610088;47;19947;-70
2023/09/30 11:05:21;;;;;;;;;;;21.00;99.90;;;;;;2610936;54;19954;-72
2023/09/30 11:08:13;;;;;;;;;;;21.80;99.90;;;;;;2607408;54;20038;-69
2023/09/30 11:10:50;;;;;;;;;;;21.00;99.90;;;;;;2607054;54;19954;-70
2023/09/30 11:13:20;;;;;;;;;;;21.00;99.90;;;;;;2612564;54;20572;-70
2023/09/30 11:15:50;;;;;;;;;;;21.10;99.90;;;;;;2605721;47;19971;-71
2023/09/30 11:18:21;;;;;;;;;;;21.10;99.90;;;;;;2606306;54;19947;-70
2023/09/30 11:20:51;;;;;;;;;;;21.30;99.90;;;;;;2605601;54;20002;-69
2023/09/30 11:23:23;;;;;;;;;;;21.40;99.90;;;;;;2606485;54;19946;-70
2023/09/30 11:25:53;;;;;;;;;;;21.50;99.90;;;;;;2606348;39;20390;-69
2023/09/30 11:28:26;;;;;;;;;;;21.50;99.90;;;;;;2606629;54;20418;-71
2023/09/30 11:30:56;;;;;;;;;;;21.70;99.90;;;;;;2604869;54;20346;-70
2023/09/30 11:33:26;;;;;;;;;;;21.60;99.90;;;;;;2606861;54;19954;-71
2023/09/30 11:36:00;;;;;;;;;;;21.60;99.90;;;;;;2606193;54;20034;-69
2023/09/30 11:38:33;;;;;;;;;;;21.70;99.90;;;;;;2606319;54;19947;-69
2023/09/30 11:41:03;;;;;;;;;;;21.80;99.90;;;;;;2606301;39;20393;-71
2023/09/30 11:43:34;;;;;;;;;;;21.90;99.90;;;;;;2606778;54;19946;-72
2023/09/30 11:46:08;;;;;;;;;;;22.00;99.90;;;;;;2605979;54;19946;-69
2023/09/30 11:48:39;;;;;;;;;;;22.30;99.90;;;;;;2605854;54;20056;-68
2023/09/30 11:51:09;;;;;;;;;;;22.50;99.90;;;;;;2604690;54;20038;-70
2023/09/30 11:53:41;;;;;;;;;;;22.70;99.90;;;;;;2606227;54;19947;-70
2023/09/30 11:56:11;;;;;;;;;;;22.80;99.90;;;;;;2605963;54;19962;-70
2023/09/30 11:58:41;;;;;;;;;;;22.80;99.90;;;;;;2605782;54;19947;-70
2023/09/30 12:01:13;;;;;;;;;;;22.90;99.90;;;;;;2605080;54;19950;-70
2023/09/30 12:03:43;;;;;;;;;;;22.90;99.90;;;;;;2605999;54;19979;-70
2023/09/30 12:06:16;;;;;;;;;;;23.00;99.90;;;;;;2606173;54;19995;-70
2023/09/30 12:08:48;;;;;;;;;;;23.00;99.90;;;;;;2607444;54;20375;-69
2023/09/30 12:11:18;;;;;;;;;;;23.10;99.90;;;;;;2606744;39;20405;-69
2023/09/30 12:13:48;;;;;;;;;;;23.10;99.90;;;;;;2606704;47;19947;-70
2023/09/30 12:16:18;;;;;;;;;;;23.20;99.90;;;;;;2606226;54;19946;-69
2023/09/30 12:18:48;;;;;;;;;;;23.40;99.90;;;;;;2606272;54;20543;-69
2023/09/30 12:21:19;;;;;;;;;;;23.50;99.90;;;;;;2605754;47;19958;-69
2023/09/30 12:23:52;;;;;;;;;;;23.50;99.90;;;;;;2605949;54;20485;-70
2023/09/30 12:26:22;;;;;;;;;;;23.50;99.90;;;;;;2615167;47;20006;-68
2023/09/30 12:28:52;;;;;;;;;;;23.30;99.90;;;;;;2616336;54;19954;-68
2023/09/30 12:31:23;;;;;;;;;;;23.20;99.90;;;;;;2618134;54;19947;-69
2023/09/30 12:33:53;;;;;;;;;;;23.00;99.90;;;;;;2622831;39;20341;-68
2023/09/30 12:36:24;;;;;;;;;;;22.80;99.90;;;;;;2623019;54;19938;-69
2023/09/30 12:38:56;;;;;;;;;;;22.80;99.90;;;;;;2620487;54;20453;-69
2023/09/30 12:41:26;;;;;;;;;;;23.00;99.90;;;;;;2616540;54;20071;-69
2023/09/30 12:43:56;;;;;;;;;;;23.10;99.90;;;;;;2616272;47;19946;-69
2023/09/30 12:46:26;;;;;;;;;;;23.20;99.90;;;;;;2618590;54;19957;-69
2023/09/30 12:48:56;;;;;;;;;;;23.30;99.90;;;;;;2616437;47;19953;-69
2023/09/30 12:51:26;;;;;;;;;;;23.50;99.90;;;;;;2617448;47;19959;-68
2023/09/30 12:53:59;;;;;;;;;;;23.70;99.90;;;;;;2616963;54;19969;-68
2023/09/30 12:56:29;;;;;;;;;;;23.90;99.90;;;;;;2616020;47;19953;-69
2023/09/30 12:58:59;;;;;;;;;;;24.00;99.90;;;;;;2616483;54;19946;-68
2023/09/30 13:01:31;;;;;;;;;;;24.00;99.90;;;;;;2615991;54;20456;-67
2023/09/30 13:04:01;;;;;;;;;;;24.20;99.90;;;;;;2616581;47;19953;-65
2023/09/30 13:06:35;;;;;;;;;;;24.30;99.90;;;;;;2616291;47;19938;-72
2023/09/30 13:09:08;;;;;;;;;;;24.40;99.90;;;;;;2616680;54;19953;-64
2023/09/30 13:11:39;;;;;;;;;;;24.50;99.90;;;;;;2616508;47;19939;-68
2023/09/30 13:14:09;;;;;;;;;;;24.50;99.90;;;;;;2610236;54;19950;-69
2023/09/30 13:16:39;;;;;;;;;;;24.60;99.90;;;;;;2609974;54;20486;-68
2023/09/30 13:19:08;;;;;;;;;;;24.50;99.90;;;;;;2605688;39;20381;-70
2023/09/30 13:21:38;;;;;;;;;;;24.40;99.90;;;;;;2605162;47;19947;-70
2023/09/30 13:24:11;;;;;;;;;;;24.40;99.90;;;;;;2604845;54;19947;-68
2023/09/30 13:26:41;;;;;;;;;;;24.30;99.90;;;;;;2606286;39;20133;-68
2023/09/30 13:29:11;;;;;;;;;;;24.30;99.90;;;;;;2609314;54;20050;-69
2023/09/30 13:31:42;;;;;;;;;;;24.30;99.90;;;;;;2605289;54;19946;-68
2023/09/30 13:34:12;;;;;;;;;;;24.20;99.90;;;;;;2604405;54;20398;-67
2023/09/30 13:36:41;;;;;;;;;;;24.10;99.90;;;;;;2605460;54;20003;-69
2023/09/30 13:39:17;;;;;;;;;;;24.00;99.90;;;;;;2605761;47;20042;-69
2023/09/30 13:41:47;;;;;;;;;;;23.90;99.90;;;;;;2604572;54;19947;-68
2023/09/30 13:44:16;;;;;;;;;;;23.80;99.90;;;;;;2608176;47;19947;-66
2023/09/30 13:46:46;;;;;;;;;;;23.70;99.90;;;;;;2615986;54;19953;-66
2023/09/30 13:49:17;;;;;;;;;;;23.70;99.90;;;;;;2615537;47;19973;-67
2023/09/30 13:51:47;;;;;;;;;;;23.60;99.90;;;;;;2615019;47;20360;-67
2023/09/30 13:54:19;;;;;;;;;;;23.60;99.90;;;;;;2616572;31;20466;-67
2023/09/30 13:56:49;;;;;;;;;;;23.50;99.90;;;;;;2616107;54;20171;-66
2023/09/30 13:59:19;;;;;;;;;;;23.50;99.90;;;;;;2615399;54;19947;-67
2023/09/30 14:01:49;;;;;;;;;;;23.50;99.90;;;;;;2616409;54;19954;-67
2023/09/30 14:04:19;;;;;;;;;;;23.40;99.90;;;;;;2616719;47;19946;-67
2023/09/30 14:06:49;;;;;;;;;;;23.30;99.90;;;;;;2616807;39;20378;-66
2023/09/30 14:09:21;;;;;;;;;;;23.20;99.90;;;;;;2615881;47;19950;-69
2023/09/30 14:12:04;;;;;;;;;;;23.20;99.90;;;;;;2616898;47;19947;-68
2023/09/30 14:14:35;;;;;;;;;;;23.10;99.90;;;;;;2616687;54;19942;-68
2023/09/30 14:17:09;;;;;;;;;;;23.10;99.90;;;;;;2616785;54;19963;-68
2023/09/30 14:19:40;;;;;;;;;;;23.10;99.90;;;;;;2616393;54;20374;-69
2023/09/30 14:22:10;;;;;;;;;;;23.10;99.90;;;;;;2616653;47;19947;-67
2023/09/30 14:24:42;;;;;;;;;;;23.10;99.90;;;;;;2617063;47;19995;-68
2023/09/30 14:27:14;;;;;;;;;;;23.20;99.90;;;;;;2616212;54;19947;-67
2023/09/30 14:29:43;;;;;;;;;;;23.60;99.90;;;;;;2616181;54;20402;-67
2023/09/30 14:32:13;;;;;;;;;;;24.20;99.90;;;;;;2616714;47;19946;-67
2023/09/30 14:34:42;;;;;;;;;;;25.20;99.90;;;;;;2616513;47;19947;-67
2023/09/30 14:37:13;;;;;;;;;;;26.00;99.90;;;;;;2616725;54;19947;-68
2023/09/30 14:39:45;;;;;;;;;;;26.30;99.90;;;;;;2615948;46;20071;-68
2023/09/30 14:42:15;;;;;;;;;;;26.20;99.90;;;;;;2616887;54;20514;-68
2023/09/30 14:44:45;;;;;;;;;;;26.10;99.90;;;;;;2616714;54;19939;-68
2023/09/30 14:47:14;;;;;;;;;;;26.00;99.90;;;;;;2616346;54;19939;-69
2023/09/30 14:49:44;;;;;;;;;;;25.80;99.90;;;;;;2615808;54;19971;-69
2023/09/30 14:52:15;;;;;;;;;;;25.80;99.90;;;;;;2616626;46;19962;-69
2023/09/30 14:54:47;;;;;;;;;;;25.80;99.90;;;;;;2617054;54;19946;-69
2023/09/30 14:57:19;;;;;;;;;;;25.90;99.90;;;;;;2616124;54;19938;-69
2023/09/30 14:59:49;;;;;;;;;;;25.90;99.90;;;;;;2616126;47;19947;-68
2023/09/30 15:02:19;;;;;;;;;;;25.80;99.90;;;;;;2615887;54;19947;-68
2023/09/30 15:04:48;;;;;;;;;;;25.60;99.90;;;;;;2616653;46;20034;-69
2023/09/30 15:07:18;;;;;;;;;;;25.40;99.90;;;;;;2616486;47;19954;-68
2023/09/30 15:09:52;;;;;;;;;;;25.30;99.90;;;;;;2616777;39;20357;-67
2023/09/30 15:12:21;;;;;;;;;;;25.10;99.90;;;;;;2616329;54;19953;-67
2023/09/30 15:14:52;;;;;;;;;;;24.90;99.90;;;;;;2617224;39;20365;-69
2023/09/30 15:17:21;;;;;;;;;;;24.60;99.90;;;;;;2616312;54;20391;-67